sensor_id;sensor_type;location;lat;lon;timestamp;pressure;altitude;pressure_sealevel;temperature;humidity
48035;BME280;33812;46.480;6.834;2023-06-10T00:03:10;93385.88;;;23.73;50.45
48035;BME280;33812;46.480;6.834;2023-06-10T00:07:12;93394.97;;;23.73;50.39
48035;BME280;33812;46.480;6.834;2023-06-10T00:11:18;93384.34;;;23.72;50.54
48035;BME280;33812;46.480;6.834;2023-06-10T00:15:20;93385.88;;;23.73;50.37
48035;BME280;33812;46.480;6.834;2023-06-10T00:19:22;93390.97;;;23.74;50.55
48035;BME280;33812;46.480;6.834;2023-06-10T00:23:26;93389.88;;;23.72;50.71
48035;BME280;33812;46.480;6.834;2023-06-10T00:27:31;93384.34;;;23.72;50.43
48035;BME280;33812;46.480;6.834;2023-06-10T00:31:37;93389.88;;;23.72;50.47
48035;BME280;33812;46.480;6.834;2023-06-10T00:35:39;93385.88;;;23.73;50.26
48035;BME280;33812;46.480;6.834;2023-06-10T00:39:41;93380.78;;;23.71;50.19
48035;BME280;33812;46.480;6.834;2023-06-10T00:43:44;93385.13;;;23.72;50.54
48035;BME280;33812;46.480;6.834;2023-06-10T00:47:46;93384.34;;;23.72;50.30
48035;BME280;33812;46.480;6.834;2023-06-10T00:51:48;93391.88;;;23.71;50.48
48035;BME280;33812;46.480;6.834;2023-06-10T00:55:51;93389.88;;;23.72;49.92
48035;BME280;33812;46.480;6.834;2023-06-10T00:59:54;93381.56;;;23.72;50.19
48035;BME280;33812;46.480;6.834;2023-06-10T01:03:56;93389.88;;;23.72;50.52
48035;BME280;33812;46.480;6.834;2023-06-10T01:08:02;93389.09;;;23.71;50.33
48035;BME280;33812;46.480;6.834;2023-06-10T01:12:10;93391.88;;;23.71;50.16
48035;BME280;33812;46.480;6.834;2023-06-10T01:16:14;93383.56;;;23.71;50.46
48035;BME280;33812;46.480;6.834;2023-06-10T01:20:16;93385.88;;;23.73;49.91
48035;BME280;33812;46.480;6.834;2023-06-10T01:24:19;93391.44;;;23.73;50.20
48035;BME280;33812;46.480;6.834;2023-06-10T01:28:25;93384.34;;;23.72;49.90
48035;BME280;33812;46.480;6.834;2023-06-10T01:32:32;93383.56;;;23.71;50.07
48035;BME280;33812;46.480;6.834;2023-06-10T01:36:36;93387.09;;;23.72;50.52
48035;BME280;33812;46.480;6.834;2023-06-10T01:40:41;93383.13;;;23.73;50.27
48035;BME280;33812;46.480;6.834;2023-06-10T01:44:43;93389.88;;;23.72;50.42
48035;BME280;33812;46.480;6.834;2023-06-10T01:48:45;93380.03;;;23.71;50.25
48035;BME280;33812;46.480;6.834;2023-06-10T01:52:47;93382.81;;;23.71;50.11
48035;BME280;33812;46.480;6.834;2023-06-10T01:56:50;93383.13;;;23.73;50.55
48035;BME280;33812;46.480;6.834;2023-06-10T02:00:52;93391.13;;;23.71;50.13
48035;BME280;33812;46.480;6.834;2023-06-10T02:04:54;93382.03;;;23.70;50.10
48035;BME280;33812;46.480;6.834;2023-06-10T02:08:57;93380.78;;;23.71;50.18
48035;BME280;33812;46.480;6.834;2023-06-10T02:13:00;93383.56;;;23.71;50.10
48035;BME280;33812;46.480;6.834;2023-06-10T02:17:02;93380.78;;;23.71;50.17
48035;BME280;33812;46.480;6.834;2023-06-10T02:21:05;93391.88;;;23.71;50.90
48035;BME280;33812;46.480;6.834;2023-06-10T02:25:08;93380.34;;;23.73;51.95
48035;BME280;33812;46.480;6.834;2023-06-10T02:29:11;93386.63;;;23.73;52.44
48035;BME280;33812;46.480;6.834;2023-06-10T02:33:13;93387.09;;;23.72;52.80
48035;BME280;33812;46.480;6.834;2023-06-10T02:37:15;93381.56;;;23.72;52.74
48035;BME280;33812;46.480;6.834;2023-06-10T02:41:17;93380.78;;;23.71;52.62
48035;BME280;33812;46.480;6.834;2023-06-10T02:45:20;93386.31;;;23.71;52.24
48035;BME280;33812;46.480;6.834;2023-06-10T02:49:22;93382.81;;;23.71;52.39
48035;BME280;33812;46.480;6.834;2023-06-10T02:53:23;93388.34;;;23.71;52.37
48035;BME280;33812;46.480;6.834;2023-06-10T02:57:25;93389.09;;;23.71;52.31
48035;BME280;33812;46.480;6.834;2023-06-10T03:01:28;93380.03;;;23.71;52.07
48035;BME280;33812;46.480;6.834;2023-06-10T03:05:32;93377.25;;;23.71;51.97
48035;BME280;33812;46.480;6.834;2023-06-10T03:09:34;93382.81;;;23.71;51.83
48035;BME280;33812;46.480;6.834;2023-06-10T03:13:35;93386.03;;;23.69;51.80
48035;BME280;33812;46.480;6.834;2023-06-10T03:17:39;93388.34;;;23.71;51.77
48035;BME280;33812;46.480;6.834;2023-06-10T03:21:44;93393.59;;;23.69;51.55
48035;BME280;33812;46.480;6.834;2023-06-10T03:25:46;93391.59;;;23.69;51.41
48035;BME280;33812;46.480;6.834;2023-06-10T03:29:47;93397.91;;;23.70;51.36
48035;BME280;33812;46.480;6.834;2023-06-10T03:33:53;93400.66;;;23.70;51.46
48035;BME280;33812;46.480;6.834;2023-06-10T03:37:55;93399.91;;;23.69;51.35
48035;BME280;33812;46.480;6.834;2023-06-10T03:41:57;93404.69;;;23.69;51.22
48035;BME280;33812;46.480;6.834;2023-06-10T03:46:02;93411.00;;;23.69;51.34
48035;BME280;33812;46.480;6.834;2023-06-10T03:50:06;93406.69;;;23.68;51.21
48035;BME280;33812;46.480;6.834;2023-06-10T03:54:08;93401.13;;;23.68;50.86
48035;BME280;33812;46.480;6.834;2023-06-10T03:58:11;93402.38;;;23.67;51.06
48035;BME280;33812;46.480;6.834;2023-06-10T04:02:13;93398.81;;;23.66;51.09
48035;BME280;33812;46.480;6.834;2023-06-10T04:06:16;93405.16;;;23.67;51.10
48035;BME280;33812;46.480;6.834;2023-06-10T04:10:18;93404.38;;;23.66;50.85
48035;BME280;33812;46.480;6.834;2023-06-10T04:14:20;93407.94;;;23.67;50.77
48035;BME280;33812;46.480;6.834;2023-06-10T04:18:22;93407.16;;;23.66;50.67
48035;BME280;33812;46.480;6.834;2023-06-10T04:22:25;93409.94;;;23.66;50.75
48035;BME280;33812;46.480;6.834;2023-06-10T04:26:28;93407.16;;;23.66;50.92
48035;BME280;33812;46.480;6.834;2023-06-10T04:30:29;93409.94;;;23.66;50.65
48035;BME280;33812;46.480;6.834;2023-06-10T04:34:32;93404.38;;;23.66;50.82
48035;BME280;33812;46.480;6.834;2023-06-10T04:38:35;93409.63;;;23.64;50.52
48035;BME280;33812;46.480;6.834;2023-06-10T04:42:37;93415.94;;;23.65;50.54
48035;BME280;33812;46.480;6.834;2023-06-10T04:46:39;93419.50;;;23.65;50.60
48035;BME280;33812;46.480;6.834;2023-06-10T04:50:41;93424.25;;;23.65;50.96
48035;BME280;33812;46.480;6.834;2023-06-10T04:54:44;93427.03;;;23.65;50.81
48035;BME280;33812;46.480;6.834;2023-06-10T04:58:46;93425.03;;;23.65;50.75
48035;BME280;33812;46.480;6.834;2023-06-10T05:02:48;93427.03;;;23.65;50.65
48035;BME280;33812;46.480;6.834;2023-06-10T05:06:51;93429.03;;;23.64;50.82
48035;BME280;33812;46.480;6.834;2023-06-10T05:10:54;93436.13;;;23.65;50.97
48035;BME280;33812;46.480;6.834;2023-06-10T05:14:56;93428.13;;;23.67;50.83
48035;BME280;33812;46.480;6.834;2023-06-10T05:19:00;93428.13;;;23.67;51.17
48035;BME280;33812;46.480;6.834;2023-06-10T05:23:02;93431.66;;;23.68;51.20
48035;BME280;33812;46.480;6.834;2023-06-10T05:27:05;93431.66;;;23.68;51.37
48035;BME280;33812;46.480;6.834;2023-06-10T05:31:09;93431.66;;;23.68;50.60
48035;BME280;33812;46.480;6.834;2023-06-10T05:35:11;93428.13;;;23.67;51.10
48035;BME280;33812;46.480;6.834;2023-06-10T05:39:12;93428.13;;;23.67;51.55
48035;BME280;33812;46.480;6.834;2023-06-10T05:43:16;93426.88;;;23.69;51.32
48035;BME280;33812;46.480;6.834;2023-06-10T05:47:18;93428.88;;;23.68;51.57
48035;BME280;33812;46.480;6.834;2023-06-10T05:51:20;93431.66;;;23.68;51.38
48035;BME280;33812;46.480;6.834;2023-06-10T05:55:22;93433.22;;;23.69;51.32
48035;BME280;33812;46.480;6.834;2023-06-10T05:59:29;93442.00;;;23.67;51.30
48035;BME280;33812;46.480;6.834;2023-06-10T06:03:31;93439.22;;;23.67;50.80
48035;BME280;33812;46.480;6.834;2023-06-10T06:07:34;93436.44;;;23.67;51.58
48035;BME280;33812;46.480;6.834;2023-06-10T06:11:36;93436.13;;;23.65;51.27
48035;BME280;33812;46.480;6.834;2023-06-10T06:15:45;93437.97;;;23.69;50.91
48035;BME280;33812;46.480;6.834;2023-06-10T06:19:47;93436.44;;;23.67;51.23
48035;BME280;33812;46.480;6.834;2023-06-10T06:23:49;93444.31;;;23.69;51.43
48035;BME280;33812;46.480;6.834;2023-06-10T06:27:51;93439.34;;;23.73;51.72
48035;BME280;33812;46.480;6.834;2023-06-10T06:31:54;93445.06;;;23.70;50.87
48035;BME280;33812;46.480;6.834;2023-06-10T06:35:58;93435.22;;;23.69;51.25
48035;BME280;33812;46.480;6.834;2023-06-10T06:40:02;93442.28;;;23.70;51.38
48035;BME280;33812;46.480;6.834;2023-06-10T06:44:05;93443.53;;;23.69;51.38
48035;BME280;33812;46.480;6.834;2023-06-10T06:48:08;93442.28;;;23.70;51.14
48035;BME280;33812;46.480;6.834;2023-06-10T06:52:11;93438.28;;;23.71;51.52
48035;BME280;33812;46.480;6.834;2023-06-10T06:56:14;93446.63;;;23.71;51.29
48035;BME280;33812;46.480;6.834;2023-06-10T07:00:16;93448.63;;;23.70;51.09
48035;BME280;33812;46.480;6.834;2023-06-10T07:04:20;93449.38;;;23.71;51.02
48035;BME280;33812;46.480;6.834;2023-06-10T07:08:22;93449.38;;;23.71;51.57
48035;BME280;33812;46.480;6.834;2023-06-10T07:12:24;93453.22;;;23.73;50.99
48035;BME280;33812;46.480;6.834;2023-06-10T07:16:27;93448.16;;;23.72;51.25
48035;BME280;33812;46.480;6.834;2023-06-10T07:20:36;93456.00;;;23.73;51.13
48035;BME280;33812;46.480;6.834;2023-06-10T07:24:40;93469.13;;;23.73;51.64
48035;BME280;33812;46.480;6.834;2023-06-10T07:28:43;93459.56;;;23.74;51.21
48035;BME280;33812;46.480;6.834;2023-06-10T07:32:53;93468.66;;;23.74;52.03
48035;BME280;33812;46.480;6.834;2023-06-10T07:37:06;93467.41;;;23.75;51.45
48035;BME280;33812;46.480;6.834;2023-06-10T07:41:13;93472.19;;;23.75;51.64
48035;BME280;33812;46.480;6.834;2023-06-10T07:45:20;93471.44;;;23.74;51.70
48035;BME280;33812;46.480;6.834;2023-06-10T07:49:24;93471.72;;;23.76;51.70
48035;BME280;33812;46.480;6.834;2023-06-10T07:53:27;93474.06;;;23.78;51.81
48035;BME280;33812;46.480;6.834;2023-06-10T07:57:30;93477.59;;;23.78;51.88
48035;BME280;33812;46.480;6.834;2023-06-10T08:01:35;93479.88;;;23.80;51.86
48035;BME280;33812;46.480;6.834;2023-06-10T08:05:40;93475.13;;;23.81;51.87
48035;BME280;33812;46.480;6.834;2023-06-10T08:09:43;93480.66;;;23.81;51.63
48035;BME280;33812;46.480;6.834;2023-06-10T08:13:45;93479.00;;;23.83;51.63
48035;BME280;33812;46.480;6.834;2023-06-10T08:17:47;93470.66;;;23.83;51.82
48035;BME280;33812;46.480;6.834;2023-06-10T08:21:50;93471.41;;;23.84;51.45
48035;BME280;33812;46.480;6.834;2023-06-10T08:25:53;93474.97;;;23.84;51.38
48035;BME280;33812;46.480;6.834;2023-06-10T08:29:54;93468.63;;;23.84;51.56
48035;BME280;33812;46.480;6.834;2023-06-10T08:33:58;93475.75;;;23.85;51.73
48035;BME280;33812;46.480;6.834;2023-06-10T08:38:01;93470.94;;;23.85;51.67
48035;BME280;33812;46.480;6.834;2023-06-10T08:42:11;93470.19;;;23.85;51.98
48035;BME280;33812;46.480;6.834;2023-06-10T08:46:17;93464.66;;;23.85;51.79
48035;BME280;33812;46.480;6.834;2023-06-10T08:50:21;93469.41;;;23.84;52.64
48035;BME280;33812;46.480;6.834;2023-06-10T08:54:26;93460.78;;;23.82;54.03
48035;BME280;33812;46.480;6.834;2023-06-10T08:58:31;93467.81;;;23.36;55.57
48035;BME280;33812;46.480;6.834;2023-06-10T09:02:36;93469.03;;;23.26;57.11
48035;BME280;33812;46.480;6.834;2023-06-10T09:06:40;93464.41;;;23.23;56.60
48035;BME280;33812;46.480;6.834;2023-06-10T09:10:42;93466.59;;;23.18;57.20
48035;BME280;33812;46.480;6.834;2023-06-10T09:14:45;93473.69;;;23.29;56.82
48035;BME280;33812;46.480;6.834;2023-06-10T09:18:47;93469.97;;;23.23;57.10
48035;BME280;33812;46.480;6.834;2023-06-10T09:22:55;93466.59;;;23.18;58.38
48035;BME280;33812;46.480;6.834;2023-06-10T09:27:02;93471.50;;;23.14;59.59
48035;BME280;33812;46.480;6.834;2023-06-10T09:31:08;93476.75;;;23.22;61.13
48035;BME280;33812;46.480;6.834;2023-06-10T09:35:10;93472.06;;;23.00;61.31
48035;BME280;33812;46.480;6.834;2023-06-10T09:39:17;93476.78;;;22.80;60.22
48035;BME280;33812;46.480;6.834;2023-06-10T09:43:19;93477.00;;;23.05;58.30
48035;BME280;33812;46.480;6.834;2023-06-10T09:47:22;93471.81;;;23.26;55.87
48035;BME280;33812;46.480;6.834;2023-06-10T09:51:24;93473.38;;;23.36;56.55
48035;BME280;33812;46.480;6.834;2023-06-10T09:55:26;93477.28;;;23.48;56.21
48035;BME280;33812;46.480;6.834;2023-06-10T09:59:29;93479.44;;;23.53;55.39
48035;BME280;33812;46.480;6.834;2023-06-10T10:03:33;93468.94;;;23.58;55.48
48035;BME280;33812;46.480;6.834;2023-06-10T10:07:35;93474.03;;;23.59;55.09
48035;BME280;33812;46.480;6.834;2023-06-10T10:11:37;93474.34;;;23.61;55.29
48035;BME280;33812;46.480;6.834;2023-06-10T10:15:39;93473.41;;;23.64;54.54
48035;BME280;33812;46.480;6.834;2023-06-10T10:19:47;93472.19;;;23.65;54.66
48035;BME280;33812;46.480;6.834;2023-06-10T10:23:53;93468.97;;;23.67;54.36
48035;BME280;33812;46.480;6.834;2023-06-10T10:28:05;93466.19;;;23.67;54.22
48035;BME280;33812;46.480;6.834;2023-06-10T10:32:10;93472.06;;;23.69;53.82
48035;BME280;33812;46.480;6.834;2023-06-10T10:36:15;93472.81;;;23.70;53.68
48035;BME280;33812;46.480;6.834;2023-06-10T10:40:17;93468.50;;;23.69;53.88
48035;BME280;33812;46.480;6.834;2023-06-10T10:44:20;93472.34;;;23.71;54.08
48035;BME280;33812;46.480;6.834;2023-06-10T10:48:23;93470.34;;;23.72;53.87
48035;BME280;33812;46.480;6.834;2023-06-10T10:52:46;93476.97;;;23.74;54.01
48035;BME280;33812;46.480;6.834;2023-06-10T10:57:15;93472.19;;;23.75;53.78
48035;BME280;33812;46.480;6.834;2023-06-10T11:01:17;93467.88;;;23.74;53.96
48035;BME280;33812;46.480;6.834;2023-06-10T11:05:31;93461.09;;;23.75;53.99
48035;BME280;33812;46.480;6.834;2023-06-10T11:09:35;93468.19;;;23.76;54.19
48035;BME280;33812;46.480;6.834;2023-06-10T11:13:36;93468.19;;;23.76;53.90
48035;BME280;33812;46.480;6.834;2023-06-10T11:18:06;93467.41;;;23.75;53.64
48035;BME280;33812;46.480;6.834;2023-06-10T11:22:08;93473.75;;;23.76;55.57
48035;BME280;33812;46.480;6.834;2023-06-10T11:26:30;93474.66;;;23.73;54.72
48035;BME280;33812;46.480;6.834;2023-06-10T11:30:35;93475.28;;;23.67;53.98
48035;BME280;33812;46.480;6.834;2023-06-10T11:34:36;93474.19;;;23.65;54.32
48035;BME280;33812;46.480;6.834;2023-06-10T11:38:38;93472.94;;;23.66;55.77
48035;BME280;33812;46.480;6.834;2023-06-10T11:42:44;93477.75;;;23.65;54.70
48035;BME280;33812;46.480;6.834;2023-06-10T11:46:48;93478.97;;;23.64;53.93
48035;BME280;33812;46.480;6.834;2023-06-10T11:50:52;93483.75;;;23.64;53.64
48035;BME280;33812;46.480;6.834;2023-06-10T11:54:54;93478.97;;;23.64;53.61
48035;BME280;33812;46.480;6.834;2023-06-10T11:59:00;93479.13;;;23.61;52.72
48035;BME280;33812;46.480;6.834;2023-06-10T12:03:04;93483.91;;;23.60;54.44
48035;BME280;33812;46.480;6.834;2023-06-10T12:07:08;93476.81;;;23.59;54.54
48035;BME280;33812;46.480;6.834;2023-06-10T12:11:15;93477.28;;;23.58;54.74
48035;BME280;33812;46.480;6.834;2023-06-10T12:15:24;93472.19;;;23.56;53.73
48035;BME280;33812;46.480;6.834;2023-06-10T12:19:27;93462.03;;;23.53;51.79
48035;BME280;33812;46.480;6.834;2023-06-10T12:23:30;93470.03;;;23.51;53.41
48035;BME280;33812;46.480;6.834;2023-06-10T12:27:33;93458.16;;;23.50;53.03
48035;BME280;33812;46.480;6.834;2023-06-10T12:31:54;93449.97;;;23.37;51.68
48035;BME280;33812;46.480;6.834;2023-06-10T12:35:56;93453.53;;;23.47;53.07
48035;BME280;33812;46.480;6.834;2023-06-10T12:39:59;93451.06;;;23.49;53.02
48035;BME280;33812;46.480;6.834;2023-06-10T12:44:05;93458.94;;;23.51;52.95
48035;BME280;33812;46.480;6.834;2023-06-10T12:48:09;93446.31;;;23.50;54.38
48035;BME280;33812;46.480;6.834;2023-06-10T12:52:11;93449.69;;;23.45;52.98
48035;BME280;33812;46.480;6.834;2023-06-10T12:56:13;93444.91;;;23.45;52.77
48035;BME280;33812;46.480;6.834;2023-06-10T13:00:16;93439.50;;;23.41;52.14
48035;BME280;33812;46.480;6.834;2023-06-10T13:04:19;93435.84;;;23.45;52.49
48035;BME280;33812;46.480;6.834;2023-06-10T13:08:21;93433.34;;;23.47;52.46
48035;BME280;33812;46.480;6.834;2023-06-10T13:12:25;93429.34;;;23.48;53.05
48035;BME280;33812;46.480;6.834;2023-06-10T13:16:31;93423.31;;;23.40;51.86
48035;BME280;33812;46.480;6.834;2023-06-10T13:20:34;93420.41;;;23.43;52.35
48035;BME280;33812;46.480;6.834;2023-06-10T13:24:38;93425.19;;;23.43;52.06
48035;BME280;33812;46.480;6.834;2023-06-10T13:28:40;93418.72;;;23.46;52.67
48035;BME280;33812;46.480;6.834;2023-06-10T13:32:43;93417.63;;;23.43;51.82
48035;BME280;33812;46.480;6.834;2023-06-10T13:36:46;93411.78;;;23.41;51.42
48035;BME280;33812;46.480;6.834;2023-06-10T13:40:48;93406.66;;;23.40;51.87
48035;BME280;33812;46.480;6.834;2023-06-10T13:44:53;93405.78;;;23.43;51.02
48035;BME280;33812;46.480;6.834;2023-06-10T13:48:55;93409.94;;;23.48;51.87
48035;BME280;33812;46.480;6.834;2023-06-10T13:52:58;93411.63;;;23.45;52.03
48035;BME280;33812;46.480;6.834;2023-06-10T13:57:01;93422.25;;;23.47;51.81
48035;BME280;33812;46.480;6.834;2023-06-10T14:01:02;93409.16;;;23.47;51.88
48035;BME280;33812;46.480;6.834;2023-06-10T14:05:05;93413.50;;;23.48;52.10
48035;BME280;33812;46.480;6.834;2023-06-10T14:09:09;93412.72;;;23.48;51.92
48035;BME280;33812;46.480;6.834;2023-06-10T14:13:11;93409.16;;;23.47;51.28
48035;BME280;33812;46.480;6.834;2023-06-10T14:17:13;93403.47;;;23.41;50.78
48035;BME280;33812;46.480;6.834;2023-06-10T14:21:16;93410.38;;;23.37;50.43
48035;BME280;33812;46.480;6.834;2023-06-10T14:25:19;93409.00;;;23.32;49.19
48035;BME280;33812;46.480;6.834;2023-06-10T14:29:21;93400.22;;;23.34;50.59
48035;BME280;33812;46.480;6.834;2023-06-10T14:33:22;93391.41;;;23.35;50.67
48035;BME280;33812;46.480;6.834;2023-06-10T14:37:25;93397.59;;;23.39;50.88
48035;BME280;33812;46.480;6.834;2023-06-10T14:41:33;93388.38;;;23.42;51.10
48035;BME280;33812;46.480;6.834;2023-06-10T14:45:35;93394.22;;;23.45;51.38
48035;BME280;33812;46.480;6.834;2023-06-10T14:49:37;93388.69;;;23.45;51.20
48035;BME280;33812;46.480;6.834;2023-06-10T14:53:39;93386.19;;;23.47;51.00
48035;BME280;33812;46.480;6.834;2023-06-10T14:57:42;93377.44;;;23.48;50.91
48035;BME280;33812;46.480;6.834;2023-06-10T15:01:43;93374.66;;;23.48;50.95
48035;BME280;33812;46.480;6.834;2023-06-10T15:05:45;93368.66;;;23.50;50.80
48035;BME280;33812;46.480;6.834;2023-06-10T15:09:47;93367.41;;;23.51;51.23
48035;BME280;33812;46.480;6.834;2023-06-10T15:13:50;93374.03;;;23.53;51.02
48035;BME280;33812;46.480;6.834;2023-06-10T15:17:53;93370.50;;;23.53;50.65
48035;BME280;33812;46.480;6.834;2023-06-10T15:21:56;93364.00;;;23.56;50.59
48035;BME280;33812;46.480;6.834;2023-06-10T15:25:58;93358.47;;;23.56;50.63
48035;BME280;33812;46.480;6.834;2023-06-10T15:30:01;93366.00;;;23.55;50.13
48035;BME280;33812;46.480;6.834;2023-06-10T15:34:03;93357.69;;;23.55;50.12
48035;BME280;33812;46.480;6.834;2023-06-10T15:38:07;93357.41;;;23.53;49.95
48035;BME280;33812;46.480;6.834;2023-06-10T15:42:09;93357.09;;;23.51;49.48
48035;BME280;33812;46.480;6.834;2023-06-10T15:46:14;93350.78;;;23.51;49.96
48035;BME280;33812;46.480;6.834;2023-06-10T15:50:16;93348.47;;;23.49;50.00
48035;BME280;33812;46.480;6.834;2023-06-10T15:54:18;93350.78;;;23.51;49.70
48035;BME280;33812;46.480;6.834;2023-06-10T15:58:20;93349.25;;;23.50;49.54
48035;BME280;33812;46.480;6.834;2023-06-10T16:02:23;93344.59;;;23.47;48.18
48035;BME280;33812;46.480;6.834;2023-06-10T16:06:25;93339.38;;;23.49;49.19
48035;BME280;33812;46.480;6.834;2023-06-10T16:10:26;93352.00;;;23.50;49.04
48035;BME280;33812;46.480;6.834;2023-06-10T16:14:28;93348.63;;;23.46;48.89
48035;BME280;33812;46.480;6.834;2023-06-10T16:18:31;93343.38;;;23.48;48.89
48035;BME280;33812;46.480;6.834;2023-06-10T16:22:34;93344.59;;;23.47;49.07
48035;BME280;33812;46.480;6.834;2023-06-10T16:26:35;93344.16;;;23.48;49.21
48035;BME280;33812;46.480;6.834;2023-06-10T16:30:37;93333.06;;;23.48;49.76
48035;BME280;33812;46.480;6.834;2023-06-10T16:34:40;93332.59;;;23.50;49.32
48035;BME280;33812;46.480;6.834;2023-06-10T16:38:42;93328.28;;;23.49;49.71
48035;BME280;33812;46.480;6.834;2023-06-10T16:42:44;93326.28;;;23.49;49.97
48035;BME280;33812;46.480;6.834;2023-06-10T16:46:46;93328.56;;;23.51;50.17
48035;BME280;33812;46.480;6.834;2023-06-10T16:50:49;93332.88;;;23.52;49.88
48035;BME280;33812;46.480;6.834;2023-06-10T16:54:51;93345.53;;;23.53;49.88
48035;BME280;33812;46.480;6.834;2023-06-10T16:58:53;93338.44;;;23.52;50.32
48035;BME280;33812;46.480;6.834;2023-06-10T17:02:54;93345.53;;;23.53;50.39
48035;BME280;33812;46.480;6.834;2023-06-10T17:06:58;93340.28;;;23.55;51.03
48035;BME280;33812;46.480;6.834;2023-06-10T17:10:59;93344.59;;;23.56;50.97
48035;BME280;33812;46.480;6.834;2023-06-10T17:15:01;93354.16;;;23.55;51.23
48035;BME280;33812;46.480;6.834;2023-06-10T17:19:03;93343.81;;;23.55;51.32
48035;BME280;33812;46.480;6.834;2023-06-10T17:23:07;93345.84;;;23.55;51.42
48035;BME280;33812;46.480;6.834;2023-06-10T17:27:10;93350.16;;;23.56;51.88
48035;BME280;33812;46.480;6.834;2023-06-10T17:31:12;93352.91;;;23.56;52.35
48035;BME280;33812;46.480;6.834;2023-06-10T17:35:15;93360.94;;;23.54;53.20
48035;BME280;33812;46.480;6.834;2023-06-10T17:39:18;93367.25;;;23.54;52.18
48035;BME280;33812;46.480;6.834;2023-06-10T17:43:21;93366.47;;;23.54;51.17
48035;BME280;33812;46.480;6.834;2023-06-10T17:47:22;93376.81;;;23.53;51.50
48035;BME280;33812;46.480;6.834;2023-06-10T17:51:24;93385.88;;;23.54;52.44
48035;BME280;33812;46.480;6.834;2023-06-10T17:55:27;93366.47;;;23.54;52.51
48035;BME280;33812;46.480;6.834;2023-06-10T17:59:29;93372.34;;;23.56;52.62
48035;BME280;33812;46.480;6.834;2023-06-10T18:03:31;93372.34;;;23.56;52.68
48035;BME280;33812;46.480;6.834;2023-06-10T18:07:36;93367.56;;;23.57;52.24
48035;BME280;33812;46.480;6.834;2023-06-10T18:11:39;93373.13;;;23.57;52.33
48035;BME280;33812;46.480;6.834;2023-06-10T18:15:41;93374.63;;;23.58;52.42
48035;BME280;33812;46.480;6.834;2023-06-10T18:19:43;93383.75;;;23.58;52.50
48035;BME280;33812;46.480;6.834;2023-06-10T18:23:45;93384.06;;;23.60;52.70
48035;BME280;33812;46.480;6.834;2023-06-10T18:27:49;93382.50;;;23.59;52.11
48035;BME280;33812;46.480;6.834;2023-06-10T18:31:51;93389.59;;;23.60;52.68
48035;BME280;33812;46.480;6.834;2023-06-10T18:35:54;93397.91;;;23.60;52.51
48035;BME280;33812;46.480;6.834;2023-06-10T18:39:55;93393.91;;;23.61;52.49
48035;BME280;33812;46.480;6.834;2023-06-10T18:43:58;93388.97;;;23.56;53.05
48035;BME280;33812;46.480;6.834;2023-06-10T18:48:01;93401.28;;;23.64;52.50
48035;BME280;33812;46.480;6.834;2023-06-10T18:52:03;93392.69;;;23.62;52.87
48035;BME280;33812;46.480;6.834;2023-06-10T18:56:07;93405.78;;;23.62;52.71
48035;BME280;33812;46.480;6.834;2023-06-10T19:00:12;93402.53;;;23.63;52.87
48035;BME280;33812;46.480;6.834;2023-06-10T19:04:14;93404.06;;;23.64;52.80
48035;BME280;33812;46.480;6.834;2023-06-10T19:08:16;93402.06;;;23.65;52.81
48035;BME280;33812;46.480;6.834;2023-06-10T19:12:18;93413.94;;;23.65;52.77
48035;BME280;33812;46.480;6.834;2023-06-10T19:16:22;93418.25;;;23.66;52.41
48035;BME280;33812;46.480;6.834;2023-06-10T19:20:24;93420.25;;;23.66;52.19
48035;BME280;33812;46.480;6.834;2023-06-10T19:24:26;93422.13;;;23.69;52.25
48035;BME280;33812;46.480;6.834;2023-06-10T19:28:27;93428.13;;;23.67;52.68
48035;BME280;33812;46.480;6.834;2023-06-10T19:32:31;93418.56;;;23.69;52.08
48035;BME280;33812;46.480;6.834;2023-06-10T19:36:32;93431.19;;;23.70;52.50
48035;BME280;33812;46.480;6.834;2023-06-10T19:40:34;93432.75;;;23.71;52.91
48035;BME280;33812;46.480;6.834;2023-06-10T19:44:36;93433.50;;;23.71;52.78
48035;BME280;33812;46.480;6.834;2023-06-10T19:48:39;93434.28;;;23.72;52.45
48035;BME280;33812;46.480;6.834;2023-06-10T19:52:41;93449.25;;;23.74;51.61
48035;BME280;33812;46.480;6.834;2023-06-10T19:56:43;93454.78;;;23.74;51.62
48035;BME280;33812;46.480;6.834;2023-06-10T20:00:44;93460.34;;;23.74;52.28
48035;BME280;33812;46.480;6.834;2023-06-10T20:04:50;93458.31;;;23.75;52.42
48035;BME280;33812;46.480;6.834;2023-06-10T20:08:51;93457.84;;;23.76;52.74
48035;BME280;33812;46.480;6.834;2023-06-10T20:12:54;93465.72;;;23.78;53.33
48035;BME280;33812;46.480;6.834;2023-06-10T20:16:56;93468.94;;;23.76;53.37
48035;BME280;33812;46.480;6.834;2023-06-10T20:20:59;93472.03;;;23.78;54.36
48035;BME280;33812;46.480;6.834;2023-06-10T20:25:01;93473.59;;;23.79;53.72
48035;BME280;33812;46.480;6.834;2023-06-10T20:29:04;93475.59;;;23.79;53.28
48035;BME280;33812;46.480;6.834;2023-06-10T20:33:06;93468.03;;;23.79;53.33
48035;BME280;33812;46.480;6.834;2023-06-10T20:37:11;93472.81;;;23.79;53.48
48035;BME280;33812;46.480;6.834;2023-06-10T20:41:14;93474.34;;;23.80;53.93
48035;BME280;33812;46.480;6.834;2023-06-10T20:45:16;93468.03;;;23.79;53.40
48035;BME280;33812;46.480;6.834;2023-06-10T20:49:18;93477.13;;;23.80;53.52
48035;BME280;33812;46.480;6.834;2023-06-10T20:53:21;93473.59;;;23.79;53.42
48035;BME280;33812;46.480;6.834;2023-06-10T20:57:24;93475.13;;;23.81;53.53
48035;BME280;33812;46.480;6.834;2023-06-10T21:01:26;93475.91;;;23.81;54.06
48035;BME280;33812;46.480;6.834;2023-06-10T21:05:27;93477.44;;;23.82;54.36
48035;BME280;33812;46.480;6.834;2023-06-10T21:09:42;93476.69;;;23.82;54.39
48035;BME280;33812;46.480;6.834;2023-06-10T21:13:44;93475.44;;;23.83;53.63
48035;BME280;33812;46.480;6.834;2023-06-10T21:17:46;93473.91;;;23.82;52.73
48035;BME280;33812;46.480;6.834;2023-06-10T21:21:47;93473.91;;;23.82;52.95
48035;BME280;33812;46.480;6.834;2023-06-10T21:25:50;93474.66;;;23.82;53.89
48035;BME280;33812;46.480;6.834;2023-06-10T21:29:52;93477.44;;;23.82;53.59